St Peter — C6YR4 — position and weather

sailwx.info

Track history (hours):
 
Tides and Currents Weather Stations Pressure Air Temp Water Temp Dewpoint Dewpoint Depression Visibility Wind Speed Wind Dir Waves Ship Positions

St Peter

Last reported at 2018-Jun-18 01:43 UTC. Time now 2018-Jun-18 07:47 UTC.
Position N 55°54' E 017°07'.

Length 180 m; draft 9.5 m.

Type: Cargo ship. MMSI: 311042700.

Date/timePositionNaut miles runAvg speedWind from/ knotsBaromVisibWave heightAir tempDewpointWater temp
2018-Jun-18 01:43N 55°54' E 017°07'312.7
2018-Jun-18 01:30N 55°55' E 017°12'612.8
2018-Jun-18 01:01N 55°56' E 017°22'712.9
2018-Jun-18 00:29N 55°58' E 017°34'612.6
2018-Jun-18 00:00N 56°00' E 017°45'812.9
2018-Jun-17 23:23N 56°04' E 017°57'18012.6
2018-Jun-17 09:06N 58°36' E 020°56'113.2
2018-Jun-17 09:00N 58°38' E 020°57'713.4
2018-Jun-17 08:30N 58°43' E 021°04'2613.4
2018-Jun-17 06:35N 59°05' E 021°30'113.4
2018-Jun-17 06:29N 59°06' E 021°32'713.3
2018-Jun-17 06:00N 59°11' E 021°41'613.3
2018-Jun-17 05:31N 59°15' E 021°51'1413.2
2018-Jun-17 04:27N 59°23' E 022°13'613.3
2018-Jun-17 04:00N 59°27' E 022°23'713.1
2018-Jun-17 03:31N 59°30' E 022°33'713.2
2018-Jun-17 03:00N 59°32' E 022°46'713.0
2018-Jun-17 02:30N 59°34' E 022°58'613.0
2018-Jun-17 02:01N 59°36' E 023°10'713.1
2018-Jun-17 01:31N 59°38' E 023°23'713.1
2018-Jun-17 01:00N 59°40' E 023°35'713.3
2018-Jun-17 00:30N 59°42' E 023°48'813.1
2018-Jun-16 23:55N 59°45' E 024°02'513.1
2018-Jun-16 23:30N 59°46' E 024°12'913.2
2018-Jun-16 22:50N 59°48' E 024°30'413.1
2018-Jun-16 22:30N 59°49' E 024°38'913.0
2018-Jun-16 21:47N 59°51' E 024°56'412.9
2018-Jun-16 21:30N 59°52' E 025°03'1712.9
2018-Jun-16 20:12N 59°54' E 025°36'313.1
2018-Jun-16 20:01N 59°54' E 025°41'713.0
2018-Jun-16 19:30N 59°57' E 025°54'712.9
2018-Jun-16 18:59N 59°59' E 026°06'612.0
2018-Jun-16 18:28N 60°04' E 026°14'613.0
2018-Jun-16 18:00N 60°09' E 026°20'612.1
2018-Jun-16 17:31N 60°14' E 026°25'510.6
2018-Jun-16 17:01N 60°18' E 026°33'612.2
2018-Jun-16 16:30N 60°22' E 026°42'612.1
2018-Jun-16 16:00N 60°22' E 026°55'612.4
2018-Jun-16 15:30N 60°20' E 027°07'713.4
2018-Jun-16 15:00N 60°26' E 027°16'3 6.7
2018-Jun-16 14:30N 60°29' E 027°14'3 6.1
2018-Jun-16 14:00N 60°31' E 027°10'1 0.1
2018-Jun-16 08:10N 60°32' E 027°10'0 0.0
2018-Jun-16 07:55N 60°32' E 027°10'0 0.0
2018-Jun-16 07:25N 60°32' E 027°10'0 0.0
2018-Jun-16 06:55N 60°32' E 027°10'0 0.0
2018-Jun-16 04:40N 60°32' E 027°10'0 0.0
2018-Jun-16 04:22N 60°32' E 027°10'0 0.0
2018-Jun-16 02:58N 60°32' E 027°10'0 0.0
2018-Jun-16 02:28N 60°32' E 027°10'0 0.0
2018-Jun-16 01:58N 60°32' E 027°10'0 0.0
2018-Jun-16 01:28N 60°32' E 027°10'0 0.0
2018-Jun-16 00:46N 60°32' E 027°10'0 0.0
2018-Jun-15 03:52N 60°32' E 027°10'0 0.0
2018-Jun-15 03:19N 60°32' E 027°10'0 0.0
2018-Jun-15 02:58N 60°32' E 027°10'0 0.0
2018-Jun-15 02:28N 60°32' E 027°10'0 0.0
2018-Jun-15 01:52N 60°32' E 027°10'0 0.0
2018-Jun-15 01:22N 60°32' E 027°10'0 0.0
2018-Jun-15 00:58N 60°32' E 027°10'0 0.0
2018-Jun-15 00:15N 60°32' E 027°10'0 0.3
2018-Jun-14 23:58N 60°32' E 027°10'2 3.9
2018-Jun-14 23:30N 60°30' E 027°12'4 8.4
2018-Jun-14 23:00N 60°26' E 027°16'510.5
2018-Jun-14 22:30N 60°22' E 027°11'611.3
2018-Jun-14 22:00N 60°21' E 026°60'612.2
2018-Jun-14 21:30N 60°22' E 026°48'611.3
2018-Jun-14 21:00N 60°20' E 026°37'612.3
2018-Jun-14 20:30N 60°16' E 026°29'510.3
2018-Jun-14 20:00N 60°11' E 026°23'611.4
2018-Jun-14 19:30N 60°06' E 026°20'6 9.6
2018-Jun-14 18:51N 60°01' E 026°28'411.9
2018-Jun-14 18:30N 60°02' E 026°36'611.2
2018-Jun-14 18:00N 60°01' E 026°47'510.7
2018-Jun-14 17:30N 59°60' E 026°58'510.3
2018-Jun-14 17:00N 60°01' E 027°08'611.1
2018-Jun-14 16:30N 60°04' E 027°17'611.3
2018-Jun-14 16:00N 60°07' E 027°27'611.2
2018-Jun-14 15:30N 60°09' E 027°37'611.0
2018-Jun-14 15:00N 60°12' E 027°46'611.4
2018-Jun-14 14:30N 60°11' E 027°57'611.2
2018-Jun-14 14:00N 60°09' E 028°08'510.8
2018-Jun-14 13:30N 60°07' E 028°18'611.0
2018-Jun-14 13:00N 60°04' E 028°28'511.0
2018-Jun-14 12:30N 60°03' E 028°38'611.8
2018-Jun-14 12:00N 60°03' E 028°50'510.9
2018-Jun-14 11:30N 60°03' E 029°01'611.6
2018-Jun-14 11:00N 60°02' E 029°13'1610.3
2018-Jun-14 09:27N 59°59' E 029°44'3 0.5
2018-Jun-14 03:37N 59°56' E 029°42'  
2018-Jun-10 16:46N 59°56' E 029°42'0 0.5
2018-Jun-10 16:27N 59°56' E 029°42'2 4.9
2018-Jun-10 15:58N 59°58' E 029°45'11 9.7
2018-Jun-10 14:50N 60°01' E 029°24'713.5
2018-Jun-10 14:19N 60°02' E 029°10'910.1
2018-Jun-10 13:28N 60°02' E 028°53'713.8
2018-Jun-10 12:59N 60°02' E 028°39'5 9.8
2018-Jun-10 12:30N 60°02' E 028°30'611.7
2018-Jun-10 12:00N 60°05' E 028°20'611.6
2018-Jun-10 11:30N 60°08' E 028°09'612.0
2018-Jun-10 11:00N 60°09' E 027°58'611.4
2018-Jun-10 10:30N 60°11' E 027°46'611.5
2018-Jun-10 10:00N 60°08' E 027°36'611.5
2018-Jun-10 09:30N 60°05' E 027°27'611.6
2018-Jun-10 09:00N 60°02' E 027°17'611.5
2018-Jun-10 08:30N 59°59' E 027°07'510.7
2018-Jun-10 08:00N 59°58' E 026°56'611.5
2018-Jun-10 07:30N 59°59' E 026°45'611.2
2018-Jun-10 07:00N 59°59' E 026°34'611.7
2018-Jun-10 06:29N 59°57' E 026°22'911.6
2018-Jun-10 05:41N 59°55' E 026°05'311.8
2018-Jun-10 05:28N 59°54' E 025°60'511.7
2018-Jun-10 05:00N 59°52' E 025°49'1111.6
2018-Jun-10 04:03N 59°50' E 025°28'011.6
2018-Jun-10 04:00N 59°50' E 025°27'611.5
2018-Jun-10 03:30N 59°49' E 025°15'611.3
2018-Jun-10 02:57N 59°47' E 025°03'511.3
2018-Jun-10 02:29N 59°46' E 024°53'611.3
2018-Jun-10 02:00N 59°45' E 024°42'611.3
2018-Jun-10 01:30N 59°44' E 024°32'611.3
2018-Jun-10 01:00N 59°42' E 024°21'611.5
2018-Jun-10 00:30N 59°40' E 024°10'611.2
2018-Jun-10 00:00N 59°39' E 023°59'611.2
2018-Jun-09 23:30N 59°37' E 023°49'611.4
2018-Jun-09 23:00N 59°36' E 023°38'611.6
2018-Jun-09 22:30N 59°34' E 023°27'611.4
2018-Jun-09 22:00N 59°32' E 023°16'611.5
2018-Jun-09 21:30N 59°30' E 023°06'611.5
2018-Jun-09 21:00N 59°28' E 022°55'611.5
2018-Jun-09 20:28N 59°26' E 022°43'611.3
2018-Jun-09 19:59N 59°24' E 022°33'1511.1
2018-Jun-09 18:38N 59°18' E 022°07'211.2
2018-Jun-09 18:25N 59°18' E 022°02'511.2
2018-Jun-09 18:00N 59°18' E 021°53'611.3
2018-Jun-09 17:30N 59°18' E 021°42'611.5
2018-Jun-09 17:00N 59°19' E 021°31'611.6
2018-Jun-09 16:30N 59°20' E 021°19'611.6
2018-Jun-09 16:00N 59°21' E 021°08'1211.6
2018-Jun-09 15:00N 59°23' E 020°46'611.5
2018-Jun-09 14:30N 59°24' E 020°35'611.5
2018-Jun-09 14:01N 59°25' E 020°23'2010.1
2018-Jun-09 12:03N 59°39' E 019°55'110.6
2018-Jun-09 11:55N 59°40' E 019°53'510.8
2018-Jun-09 11:26N 59°43' E 019°46'510.9
2018-Jun-09 11:00N 59°47' E 019°40'711.2
2018-Jun-09 10:22N 59°53' E 019°32'411.2
2018-Jun-09 10:00N 59°56' E 019°26'510.9
2018-Jun-09 09:30N 59°60' E 019°19'511.0
2018-Jun-09 09:00N 60°04' E 019°12'611.1
2018-Jun-09 08:26N 60°09' E 019°04'410.3
2018-Jun-09 08:00N 60°13' E 019°00'611.1
2018-Jun-09 07:30N 60°19' E 019°00'711.3
2018-Jun-09 06:55N 60°25' E 018°59'  
Track history (hours):
 
Tides and Currents Weather Stations Pressure Air Temp Water Temp Dewpoint Dewpoint Depression Visibility Wind Speed Wind Dir Waves Ship Positions

St Peter

Last reported at 2018-Jun-18 01:43 UTC. Time now 2018-Jun-18 07:47 UTC.
Position N 55°54' E 017°07'.

Length 180 m; draft 9.5 m.

Type: Cargo ship. MMSI: 311042700.

Date/timePositionNaut miles runAvg speedWind from/ knotsBaromVisibWave heightAir tempDewpointWater temp
2018-Jun-18 01:43N 55°54' E 017°07'312.7
2018-Jun-18 01:30N 55°55' E 017°12'612.8
2018-Jun-18 01:01N 55°56' E 017°22'712.9
2018-Jun-18 00:29N 55°58' E 017°34'612.6
2018-Jun-18 00:00N 56°00' E 017°45'812.9
2018-Jun-17 23:23N 56°04' E 017°57'18012.6
2018-Jun-17 09:06N 58°36' E 020°56'113.2
2018-Jun-17 09:00N 58°38' E 020°57'713.4
2018-Jun-17 08:30N 58°43' E 021°04'2613.4
2018-Jun-17 06:35N 59°05' E 021°30'113.4
2018-Jun-17 06:29N 59°06' E 021°32'713.3
2018-Jun-17 06:00N 59°11' E 021°41'613.3
2018-Jun-17 05:31N 59°15' E 021°51'1413.2
2018-Jun-17 04:27N 59°23' E 022°13'613.3
2018-Jun-17 04:00N 59°27' E 022°23'713.1
2018-Jun-17 03:31N 59°30' E 022°33'713.2
2018-Jun-17 03:00N 59°32' E 022°46'713.0
2018-Jun-17 02:30N 59°34' E 022°58'613.0
2018-Jun-17 02:01N 59°36' E 023°10'713.1
2018-Jun-17 01:31N 59°38' E 023°23'713.1
2018-Jun-17 01:00N 59°40' E 023°35'713.3
2018-Jun-17 00:30N 59°42' E 023°48'813.1
2018-Jun-16 23:55N 59°45' E 024°02'513.1
2018-Jun-16 23:30N 59°46' E 024°12'913.2
2018-Jun-16 22:50N 59°48' E 024°30'413.1
2018-Jun-16 22:30N 59°49' E 024°38'913.0
2018-Jun-16 21:47N 59°51' E 024°56'412.9
2018-Jun-16 21:30N 59°52' E 025°03'1712.9
2018-Jun-16 20:12N 59°54' E 025°36'313.1
2018-Jun-16 20:01N 59°54' E 025°41'713.0
2018-Jun-16 19:30N 59°57' E 025°54'712.9
2018-Jun-16 18:59N 59°59' E 026°06'612.0
2018-Jun-16 18:28N 60°04' E 026°14'613.0
2018-Jun-16 18:00N 60°09' E 026°20'612.1
2018-Jun-16 17:31N 60°14' E 026°25'510.6
2018-Jun-16 17:01N 60°18' E 026°33'612.2
2018-Jun-16 16:30N 60°22' E 026°42'612.1
2018-Jun-16 16:00N 60°22' E 026°55'612.4
2018-Jun-16 15:30N 60°20' E 027°07'713.4
2018-Jun-16 15:00N 60°26' E 027°16'3 6.7
2018-Jun-16 14:30N 60°29' E 027°14'3 6.1
2018-Jun-16 14:00N 60°31' E 027°10'1 0.1
2018-Jun-16 08:10N 60°32' E 027°10'0 0.0
2018-Jun-16 07:55N 60°32' E 027°10'0 0.0
2018-Jun-16 07:25N 60°32' E 027°10'0 0.0
2018-Jun-16 06:55N 60°32' E 027°10'0 0.0
2018-Jun-16 04:40N 60°32' E 027°10'0 0.0
2018-Jun-16 04:22N 60°32' E 027°10'0 0.0
2018-Jun-16 02:58N 60°32' E 027°10'0 0.0
2018-Jun-16 02:28N 60°32' E 027°10'0 0.0
2018-Jun-16 01:58N 60°32' E 027°10'0 0.0
2018-Jun-16 01:28N 60°32' E 027°10'0 0.0
2018-Jun-16 00:46N 60°32' E 027°10'0 0.0
2018-Jun-15 03:52N 60°32' E 027°10'0 0.0
2018-Jun-15 03:19N 60°32' E 027°10'0 0.0
2018-Jun-15 02:58N 60°32' E 027°10'0 0.0
2018-Jun-15 02:28N 60°32' E 027°10'0 0.0
2018-Jun-15 01:52N 60°32' E 027°10'0 0.0
2018-Jun-15 01:22N 60°32' E 027°10'0 0.0
2018-Jun-15 00:58N 60°32' E 027°10'0 0.0
2018-Jun-15 00:15N 60°32' E 027°10'0 0.3
2018-Jun-14 23:58N 60°32' E 027°10'2 3.9
2018-Jun-14 23:30N 60°30' E 027°12'4 8.4
2018-Jun-14 23:00N 60°26' E 027°16'510.5
2018-Jun-14 22:30N 60°22' E 027°11'611.3
2018-Jun-14 22:00N 60°21' E 026°60'612.2
2018-Jun-14 21:30N 60°22' E 026°48'611.3
2018-Jun-14 21:00N 60°20' E 026°37'612.3
2018-Jun-14 20:30N 60°16' E 026°29'510.3
2018-Jun-14 20:00N 60°11' E 026°23'611.4
2018-Jun-14 19:30N 60°06' E 026°20'6 9.6
2018-Jun-14 18:51N 60°01' E 026°28'411.9
2018-Jun-14 18:30N 60°02' E 026°36'611.2
2018-Jun-14 18:00N 60°01' E 026°47'510.7
2018-Jun-14 17:30N 59°60' E 026°58'510.3
2018-Jun-14 17:00N 60°01' E 027°08'611.1
2018-Jun-14 16:30N 60°04' E 027°17'611.3
2018-Jun-14 16:00N 60°07' E 027°27'611.2
2018-Jun-14 15:30N 60°09' E 027°37'611.0
2018-Jun-14 15:00N 60°12' E 027°46'611.4
2018-Jun-14 14:30N 60°11' E 027°57'611.2
2018-Jun-14 14:00N 60°09' E 028°08'510.8
2018-Jun-14 13:30N 60°07' E 028°18'611.0
2018-Jun-14 13:00N 60°04' E 028°28'511.0
2018-Jun-14 12:30N 60°03' E 028°38'611.8
2018-Jun-14 12:00N 60°03' E 028°50'510.9
2018-Jun-14 11:30N 60°03' E 029°01'611.6
2018-Jun-14 11:00N 60°02' E 029°13'1610.3
2018-Jun-14 09:27N 59°59' E 029°44'3 0.5
2018-Jun-14 03:37N 59°56' E 029°42'  
2018-Jun-10 16:46N 59°56' E 029°42'0 0.5
2018-Jun-10 16:27N 59°56' E 029°42'2 4.9
2018-Jun-10 15:58N 59°58' E 029°45'11 9.7
2018-Jun-10 14:50N 60°01' E 029°24'713.5
2018-Jun-10 14:19N 60°02' E 029°10'910.1
2018-Jun-10 13:28N 60°02' E 028°53'713.8
2018-Jun-10 12:59N 60°02' E 028°39'5 9.8
2018-Jun-10 12:30N 60°02' E 028°30'611.7
2018-Jun-10 12:00N 60°05' E 028°20'611.6
2018-Jun-10 11:30N 60°08' E 028°09'612.0
2018-Jun-10 11:00N 60°09' E 027°58'611.4
2018-Jun-10 10:30N 60°11' E 027°46'611.5
2018-Jun-10 10:00N 60°08' E 027°36'611.5
2018-Jun-10 09:30N 60°05' E 027°27'611.6
2018-Jun-10 09:00N 60°02' E 027°17'611.5
2018-Jun-10 08:30N 59°59' E 027°07'510.7
2018-Jun-10 08:00N 59°58' E 026°56'611.5
2018-Jun-10 07:30N 59°59' E 026°45'611.2
2018-Jun-10 07:00N 59°59' E 026°34'611.7
2018-Jun-10 06:29N 59°57' E 026°22'911.6
2018-Jun-10 05:41N 59°55' E 026°05'311.8
2018-Jun-10 05:28N 59°54' E 025°60'511.7
2018-Jun-10 05:00N 59°52' E 025°49'1111.6
2018-Jun-10 04:03N 59°50' E 025°28'011.6
2018-Jun-10 04:00N 59°50' E 025°27'611.5
2018-Jun-10 03:30N 59°49' E 025°15'611.3
2018-Jun-10 02:57N 59°47' E 025°03'511.3
2018-Jun-10 02:29N 59°46' E 024°53'611.3
2018-Jun-10 02:00N 59°45' E 024°42'611.3
2018-Jun-10 01:30N 59°44' E 024°32'611.3
2018-Jun-10 01:00N 59°42' E 024°21'611.5
2018-Jun-10 00:30N 59°40' E 024°10'611.2
2018-Jun-10 00:00N 59°39' E 023°59'611.2
2018-Jun-09 23:30N 59°37' E 023°49'611.4
2018-Jun-09 23:00N 59°36' E 023°38'611.6
2018-Jun-09 22:30N 59°34' E 023°27'611.4
2018-Jun-09 22:00N 59°32' E 023°16'611.5
2018-Jun-09 21:30N 59°30' E 023°06'611.5
2018-Jun-09 21:00N 59°28' E 022°55'611.5
2018-Jun-09 20:28N 59°26' E 022°43'611.3
2018-Jun-09 19:59N 59°24' E 022°33'1511.1
2018-Jun-09 18:38N 59°18' E 022°07'211.2
2018-Jun-09 18:25N 59°18' E 022°02'511.2
2018-Jun-09 18:00N 59°18' E 021°53'611.3
2018-Jun-09 17:30N 59°18' E 021°42'611.5
2018-Jun-09 17:00N 59°19' E 021°31'611.6
2018-Jun-09 16:30N 59°20' E 021°19'611.6
2018-Jun-09 16:00N 59°21' E 021°08'1211.6
2018-Jun-09 15:00N 59°23' E 020°46'611.5
2018-Jun-09 14:30N 59°24' E 020°35'611.5
2018-Jun-09 14:01N 59°25' E 020°23'2010.1
2018-Jun-09 12:03N 59°39' E 019°55'110.6
2018-Jun-09 11:55N 59°40' E 019°53'510.8
2018-Jun-09 11:26N 59°43' E 019°46'510.9
2018-Jun-09 11:00N 59°47' E 019°40'711.2
2018-Jun-09 10:22N 59°53' E 019°32'411.2
2018-Jun-09 10:00N 59°56' E 019°26'510.9
2018-Jun-09 09:30N 59°60' E 019°19'511.0
2018-Jun-09 09:00N 60°04' E 019°12'611.1
2018-Jun-09 08:26N 60°09' E 019°04'410.3
2018-Jun-09 08:00N 60°13' E 019°00'611.1
2018-Jun-09 07:30N 60°19' E 019°00'711.3
2018-Jun-09 06:55N 60°25' E 018°59'  

Dump ship's entire track history